createdAt,value
2022-08-09T00:01:52.549Z,4.30
2022-08-09T00:04:35.068Z,4.75
2022-08-09T00:07:07.718Z,6.38
2022-08-09T00:12:15.554Z,4.97
2022-08-09T00:14:54.456Z,5.00
2022-08-09T00:18:05.273Z,7.00
2022-08-09T00:20:15.513Z,6.28
2022-08-09T00:22:44.853Z,4.55
2022-08-09T00:25:23.182Z,6.57
2022-08-09T00:27:56.967Z,7.50
2022-08-09T00:30:27.059Z,7.15
2022-08-09T00:32:56.137Z,5.18
2022-08-09T00:35:29.635Z,5.50
2022-08-09T00:38:13.079Z,5.43
2022-08-09T00:40:53.120Z,5.72
2022-08-09T00:44:14.505Z,5.90
2022-08-09T00:46:28.357Z,6.47
2022-08-09T00:49:03.986Z,5.40
2022-08-09T00:51:33.833Z,8.13
2022-08-09T00:54:12.001Z,7.60
2022-08-09T00:56:44.960Z,8.60
2022-08-09T00:59:15.356Z,7.47
2022-08-09T01:02:03.249Z,8.65
2022-08-09T01:04:39.092Z,8.00
2022-08-09T01:07:17.499Z,5.93
2022-08-09T01:09:54.279Z,7.32
2022-08-09T01:12:31.235Z,7.97
2022-08-09T01:15:10.066Z,5.57
2022-08-09T01:17:57.590Z,6.88
2022-08-09T01:20:39.257Z,6.55
2022-08-09T01:24:00.701Z,7.85
2022-08-09T01:26:37.008Z,6.30
2022-08-09T01:29:07.650Z,7.57
2022-08-09T01:32:30.960Z,6.13
2022-08-09T01:34:30.334Z,8.18
2022-08-09T01:37:02.323Z,8.77
2022-08-09T01:39:35.693Z,6.25
2022-08-09T01:42:11.111Z,6.85
2022-08-09T01:44:41.406Z,5.97
2022-08-09T01:47:12.564Z,6.65
2022-08-09T01:49:48.767Z,7.90
2022-08-09T01:52:25.284Z,6.47
2022-08-09T01:54:58.461Z,5.80
2022-08-09T01:57:40.225Z,7.38
2022-08-09T02:00:34.641Z,7.43
2022-08-09T02:03:07.627Z,9.57
2022-08-09T02:06:03.380Z,10.23
2022-08-09T02:08:38.751Z,6.07
2022-08-09T02:11:23.707Z,7.25
2022-08-09T02:14:25.520Z,8.10
2022-08-09T02:17:00.157Z,7.60
2022-08-09T02:19:45.848Z,7.65
2022-08-09T02:22:31.832Z,7.60
2022-08-09T02:25:15.124Z,9.20
2022-08-09T02:28:00.652Z,9.50
2022-08-09T02:30:41.546Z,9.43
2022-08-09T02:33:14.522Z,9.48
2022-08-09T02:36:03.350Z,7.38
2022-08-09T02:38:37.791Z,8.20
2022-08-09T02:41:11.707Z,8.60
2022-08-09T02:43:54.814Z,8.07
2022-08-09T02:46:30.879Z,8.35
2022-08-09T02:49:04.481Z,10.68
2022-08-09T02:51:45.956Z,8.95
2022-08-09T02:54:17.899Z,10.82
2022-08-09T02:56:56.861Z,11.57
2022-08-09T02:59:36.267Z,10.20
2022-08-09T03:02:12.173Z,12.95
2022-08-09T03:04:50.602Z,10.23
2022-08-09T03:07:21.497Z,10.88
2022-08-09T03:09:53.931Z,12.02
2022-08-09T03:12:27.538Z,11.35
2022-08-09T03:14:58.665Z,14.70
2022-08-09T03:17:30.732Z,15.27
2022-08-09T03:20:05.166Z,11.73
2022-08-09T03:22:44.618Z,11.65
2022-08-09T03:25:26.159Z,12.57
2022-08-09T03:28:11.266Z,13.35
2022-08-09T03:30:40.988Z,10.80
2022-08-09T03:33:17.806Z,11.13
2022-08-09T03:36:13.314Z,14.10
2022-08-09T03:38:41.663Z,11.98
2022-08-09T03:41:15.247Z,13.82
2022-08-09T03:44:03.402Z,14.18
2022-08-09T03:46:35.007Z,14.85
2022-08-09T03:49:08.695Z,16.77
2022-08-09T03:51:55.455Z,13.30
2022-08-09T03:54:31.368Z,14.02
2022-08-09T03:57:04.317Z,12.63
2022-08-09T03:59:53.326Z,11.57
2022-08-09T04:02:30.356Z,11.75
2022-08-09T04:05:06.283Z,11.23
2022-08-09T04:07:53.436Z,14.00
2022-08-09T04:10:29.536Z,12.40
2022-08-09T04:13:04.014Z,15.17
2022-08-09T04:16:17.590Z,13.43
2022-08-09T04:18:25.159Z,12.20
2022-08-09T04:20:55.781Z,13.05
2022-08-09T04:23:25.739Z,15.48
2022-08-09T04:25:55.909Z,13.23
2022-08-09T04:28:33.005Z,13.00
2022-08-09T04:31:05.922Z,13.00
2022-08-09T04:33:47.219Z,13.68
2022-08-09T04:36:26.101Z,10.13
2022-08-09T04:38:56.477Z,11.20
2022-08-09T04:41:32.408Z,13.25
2022-08-09T04:44:07.275Z,11.90
2022-08-09T04:46:59.486Z,14.20
2022-08-09T04:49:52.837Z,13.15
2022-08-09T04:52:26.557Z,11.98
2022-08-09T04:54:57.433Z,11.32
2022-08-09T04:57:58.469Z,15.00
2022-08-09T05:00:17.221Z,11.20
2022-08-09T05:02:51.963Z,13.45
2022-08-09T05:08:14.019Z,10.60
2022-08-09T05:10:44.549Z,11.40
2022-08-09T05:13:14.422Z,10.48
2022-08-09T05:15:52.332Z,10.75
2022-08-09T05:18:39.559Z,11.63
2022-08-09T05:21:22.739Z,9.85
2022-08-09T05:24:00.031Z,9.38
2022-08-09T05:26:45.612Z,10.05
2022-08-09T05:29:21.186Z,10.52
2022-08-09T05:31:58.458Z,12.55
2022-08-09T05:34:30.223Z,9.82
2022-08-09T05:37:04.993Z,8.93
2022-08-09T05:39:42.695Z,10.82
2022-08-09T05:42:26.275Z,10.00
2022-08-09T05:44:57.581Z,10.32
2022-08-09T05:47:30.361Z,10.05
2022-08-09T05:50:30.248Z,9.15
2022-08-09T05:52:53.289Z,10.45
2022-08-09T05:55:24.898Z,10.02
2022-08-09T05:57:57.183Z,8.73
2022-08-09T06:00:29.159Z,13.35
2022-08-09T06:02:58.977Z,9.02
2022-08-09T06:05:31.244Z,9.68
2022-08-09T06:08:19.735Z,8.45
2022-08-09T06:10:58.241Z,14.38
2022-08-09T06:13:34.153Z,8.77
2022-08-09T06:18:34.718Z,9.13
2022-08-09T06:21:04.573Z,9.70
2022-08-09T06:23:57.249Z,10.88
2022-08-09T06:26:28.461Z,10.13
2022-08-09T06:29:00.230Z,11.27
2022-08-09T06:31:39.221Z,8.02
2022-08-09T06:34:23.470Z,9.25
2022-08-09T06:36:59.381Z,8.68
2022-08-09T06:39:48.450Z,8.05
2022-08-09T06:42:24.871Z,7.55
2022-08-09T06:45:00.092Z,7.75
2022-08-09T06:47:30.265Z,6.75
2022-08-09T06:50:14.574Z,6.47
2022-08-09T06:52:49.102Z,8.10
2022-08-09T06:55:22.448Z,8.13
2022-08-09T06:58:03.370Z,7.72
2022-08-09T07:00:56.190Z,8.77
2022-08-09T07:03:28.495Z,8.80
2022-08-09T07:08:34.386Z,6.97
2022-08-09T07:11:06.098Z,9.00
2022-08-09T07:13:45.328Z,10.23
2022-08-09T07:16:41.058Z,13.13
2022-08-09T07:19:15.747Z,10.57
2022-08-09T07:21:57.287Z,10.55
2022-08-09T07:24:31.808Z,11.40
2022-08-09T07:27:27.109Z,12.15
2022-08-09T07:30:02.533Z,13.02
2022-08-09T07:32:34.405Z,13.80
2022-08-09T07:35:10.004Z,15.88
2022-08-09T07:37:43.770Z,15.90
2022-08-09T07:40:17.292Z,15.77
2022-08-09T07:42:54.633Z,17.10
2022-08-09T07:45:37.829Z,12.45
2022-08-09T07:48:25.359Z,13.35
2022-08-09T07:51:09.246Z,13.95
2022-08-09T07:54:04.438Z,13.30
2022-08-09T07:56:37.000Z,11.90
2022-08-09T07:59:16.031Z,10.75
2022-08-09T08:01:56.592Z,12.48
2022-08-09T08:04:32.189Z,12.00
2022-08-09T08:07:15.442Z,13.90
2022-08-09T08:09:54.907Z,15.70
2022-08-09T08:12:42.950Z,14.90
2022-08-09T08:15:16.791Z,13.82
2022-08-09T08:17:55.507Z,14.23
2022-08-09T08:20:32.474Z,17.15
2022-08-09T08:25:46.604Z,20.85
2022-08-09T08:28:26.210Z,21.75
2022-08-09T08:31:10.427Z,18.85
2022-08-09T08:33:53.865Z,17.88
2022-08-09T08:36:29.721Z,22.60
2022-08-09T08:39:00.474Z,16.35
2022-08-09T08:41:50.799Z,17.23
2022-08-09T08:44:29.208Z,16.30
2022-08-09T08:47:05.099Z,16.70
2022-08-09T08:49:48.272Z,13.70
2022-08-09T08:52:52.500Z,18.75
2022-08-09T08:55:09.801Z,17.80
2022-08-09T08:57:39.440Z,16.20
2022-08-09T09:00:16.809Z,15.52
2022-08-09T09:02:53.413Z,15.25
2022-08-09T09:05:57.396Z,14.57
2022-08-09T09:08:29.778Z,15.60
2022-08-09T09:11:04.355Z,17.10
2022-08-09T09:13:55.107Z,15.43
2022-08-09T09:16:30.644Z,14.80
2022-08-09T09:19:29.407Z,18.98
2022-08-09T09:22:05.314Z,16.52
2022-08-09T09:24:40.438Z,15.27
2022-08-09T09:27:21.987Z,15.35
2022-08-09T09:30:26.261Z,14.88
2022-08-09T09:33:13.686Z,14.68
2022-08-09T09:36:01.971Z,16.27
2022-08-09T09:38:46.588Z,16.80
2022-08-09T09:41:49.234Z,15.02
2022-08-09T09:44:27.607Z,15.70
2022-08-09T09:46:58.978Z,15.93
2022-08-09T09:49:49.984Z,14.88
2022-08-09T09:52:36.385Z,14.55
2022-08-09T09:55:28.808Z,16.38
2022-08-09T09:58:15.703Z,17.88
2022-08-09T10:00:55.124Z,17.77
2022-08-09T10:03:57.368Z,14.82
2022-08-09T10:06:32.217Z,14.43
2022-08-09T10:09:22.882Z,13.23
2022-08-09T10:12:11.937Z,13.52
2022-08-09T10:14:47.965Z,14.63
2022-08-09T10:17:39.764Z,15.02
2022-08-09T10:20:27.555Z,16.45
2022-08-09T10:23:17.142Z,14.63
2022-08-09T10:26:07.072Z,13.20
2022-08-09T10:28:41.107Z,13.48
2022-08-09T10:34:08.977Z,11.27
2022-08-09T10:36:45.242Z,13.02
2022-08-09T10:39:18.271Z,13.82
2022-08-09T10:41:49.560Z,10.93
2022-08-09T10:44:22.236Z,10.52
2022-08-09T10:48:12.291Z,11.13
2022-08-09T10:50:05.758Z,12.25
2022-08-09T10:53:00.225Z,12.00
2022-08-09T10:55:35.821Z,13.13
2022-08-09T10:58:35.162Z,14.52
2022-08-09T11:03:14.279Z,16.92
2022-08-09T11:04:32.712Z,15.07
2022-08-09T11:07:57.728Z,13.55
2022-08-09T11:10:54.878Z,13.25
2022-08-09T11:13:50.661Z,13.52
2022-08-09T11:16:38.100Z,13.95
2022-08-09T11:19:10.738Z,13.82
2022-08-09T11:22:10.363Z,12.90
2022-08-09T11:25:05.525Z,15.03
2022-08-09T11:28:03.715Z,10.85
2022-08-09T11:30:37.626Z,13.50
2022-08-09T11:33:25.729Z,12.75
2022-08-09T11:35:58.568Z,11.75
2022-08-09T11:38:33.067Z,12.90
2022-08-09T11:41:37.515Z,14.18
2022-08-09T11:44:07.941Z,12.43
2022-08-09T11:46:57.153Z,12.85
2022-08-09T11:50:54.982Z,9.70
2022-08-09T11:53:35.507Z,11.02
2022-08-09T11:56:34.315Z,12.65
2022-08-09T11:59:14.332Z,12.95
2022-08-09T12:02:16.953Z,11.93
2022-08-09T12:04:37.138Z,13.38
2022-08-09T12:07:08.891Z,10.95
2022-08-09T12:09:38.044Z,14.60
2022-08-09T12:12:13.099Z,12.10
2022-08-09T12:15:08.066Z,12.60
2022-08-09T12:17:42.143Z,11.57
2022-08-09T12:20:16.212Z,12.02
2022-08-09T12:22:55.966Z,10.10
2022-08-09T12:25:36.211Z,10.88
2022-08-09T12:29:10.555Z,10.95
2022-08-09T12:31:00.868Z,14.25
2022-08-09T12:33:51.366Z,10.18
2022-08-09T12:36:31.915Z,10.48
2022-08-09T12:39:04.293Z,11.15
2022-08-09T12:41:39.757Z,11.55
2022-08-09T12:44:13.026Z,11.60
2022-08-09T12:46:48.803Z,13.25
2022-08-09T12:49:21.482Z,10.77
2022-08-09T12:52:01.204Z,9.20
2022-08-09T12:56:10.641Z,10.40
2022-08-09T12:57:48.413Z,9.90
2022-08-09T13:00:25.068Z,9.25
2022-08-09T13:02:57.322Z,11.82
2022-08-09T13:05:50.846Z,9.95
2022-08-09T13:08:20.960Z,10.77
2022-08-09T13:11:23.081Z,12.98
2022-08-09T13:14:37.897Z,9.07
2022-08-09T13:16:49.545Z,11.32
2022-08-09T13:20:07.058Z,10.80
2022-08-09T13:22:37.160Z,9.88
2022-08-09T13:25:07.843Z,11.27
2022-08-09T13:27:48.586Z,9.07
2022-08-09T13:31:53.495Z,12.05
2022-08-09T13:33:52.372Z,12.48
2022-08-09T13:36:41.839Z,12.43
2022-08-09T13:41:45.639Z,11.70
2022-08-09T13:42:02.290Z,11.93
2022-08-09T13:44:35.114Z,10.43
2022-08-09T13:47:29.828Z,10.95
2022-08-09T13:49:58.024Z,14.65
2022-08-09T13:52:33.917Z,14.60
2022-08-09T13:55:07.214Z,11.07
2022-08-09T13:57:40.182Z,13.52
2022-08-09T14:00:15.491Z,14.35
2022-08-09T14:03:03.636Z,11.88
2022-08-09T14:06:01.185Z,13.13
2022-08-09T14:08:26.870Z,10.38
2022-08-09T14:10:59.416Z,12.07
2022-08-09T14:14:22.255Z,11.85
2022-08-09T14:16:28.858Z,11.73
2022-08-09T14:18:59.475Z,12.27
2022-08-09T14:21:31.849Z,11.45
2022-08-09T14:24:10.494Z,12.75
2022-08-09T14:26:51.831Z,13.30
2022-08-09T14:30:15.123Z,10.93
2022-08-09T14:32:13.254Z,11.05
2022-08-09T14:34:45.475Z,9.85
2022-08-09T14:37:14.806Z,11.20
2022-08-09T14:39:48.563Z,9.10
2022-08-09T14:42:30.069Z,10.00
2022-08-09T14:46:39.558Z,10.90
2022-08-09T14:47:57.187Z,11.13
2022-08-09T14:50:31.412Z,9.93
2022-08-09T14:53:01.791Z,11.48
2022-08-09T14:55:32.147Z,9.15
2022-08-09T14:58:04.496Z,11.57
2022-08-09T15:00:36.444Z,11.65
2022-08-09T15:03:09.011Z,12.68
2022-08-09T15:05:40.223Z,13.15
2022-08-09T15:08:20.471Z,12.63
2022-08-09T15:11:01.238Z,10.63
2022-08-09T15:13:48.644Z,10.60
2022-08-09T15:16:20.701Z,9.00
2022-08-09T15:18:52.438Z,7.93
2022-08-09T15:21:55.996Z,10.88
2022-08-09T15:24:23.332Z,7.93
2022-08-09T15:26:56.282Z,7.93
2022-08-09T15:30:55.673Z,7.57
2022-08-09T15:32:28.761Z,7.30
2022-08-09T15:35:18.469Z,11.10
2022-08-09T15:37:56.956Z,9.13
2022-08-09T15:40:43.814Z,7.38
2022-08-09T15:43:14.215Z,10.23
2022-08-09T15:46:07.734Z,9.70
2022-08-09T15:48:33.926Z,7.53
2022-08-09T15:51:30.463Z,8.63
2022-08-09T15:54:07.082Z,7.05
2022-08-09T15:56:41.643Z,10.52
2022-08-09T15:59:13.757Z,9.68
2022-08-09T16:01:42.857Z,9.65
2022-08-09T16:04:13.711Z,12.75
2022-08-09T16:06:50.292Z,10.43
2022-08-09T16:09:32.329Z,11.05
2022-08-09T16:12:11.326Z,11.55
2022-08-09T16:14:40.758Z,9.80
2022-08-09T16:17:12.096Z,11.25
2022-08-09T16:19:48.975Z,10.25
2022-08-09T16:22:20.412Z,9.55
2022-08-09T16:24:56.936Z,10.85
2022-08-09T16:27:29.894Z,9.75
2022-08-09T16:30:02.612Z,11.30
2022-08-09T16:32:53.272Z,11.18
2022-08-09T16:35:56.100Z,11.63
2022-08-09T16:38:14.815Z,11.30
2022-08-09T16:40:48.078Z,9.95
2022-08-09T16:43:18.124Z,9.68
2022-08-09T16:45:47.992Z,12.23
2022-08-09T16:48:38.348Z,11.70
2022-08-09T16:51:08.640Z,15.50
2022-08-09T16:54:24.888Z,12.93
2022-08-09T16:56:35.250Z,9.40
2022-08-09T16:59:10.696Z,10.10
2022-08-09T17:01:43.777Z,12.10
2022-08-09T17:04:26.058Z,12.70
2022-08-09T17:08:40.189Z,15.80
2022-08-09T17:09:50.615Z,13.25
2022-08-09T17:12:20.105Z,12.07
2022-08-09T17:14:54.945Z,12.80
2022-08-09T17:17:27.925Z,14.90
2022-08-09T17:20:28.416Z,13.55
2022-08-09T17:22:51.872Z,13.73
2022-08-09T17:25:23.886Z,17.50
2022-08-09T17:27:55.212Z,15.35
2022-08-09T17:30:26.442Z,16.48
2022-08-09T17:33:04.884Z,11.93
2022-08-09T17:35:41.279Z,14.43
2022-08-09T17:38:32.497Z,16.00
2022-08-09T17:41:04.834Z,19.85
2022-08-09T17:43:37.161Z,14.98
2022-08-09T17:46:09.450Z,17.77
2022-08-09T17:48:46.540Z,15.60
2022-08-09T17:51:23.169Z,16.45
2022-08-09T17:53:55.233Z,18.30
2022-08-09T17:56:35.188Z,16.40
2022-08-09T17:59:09.527Z,20.25
2022-08-09T18:02:07.803Z,18.15
2022-08-09T18:04:31.382Z,20.17
2022-08-09T18:07:04.453Z,25.50
2022-08-09T18:09:41.402Z,18.90
2022-08-09T18:12:20.056Z,15.75
2022-08-09T18:14:54.860Z,17.45
2022-08-09T18:17:27.612Z,19.00
2022-08-09T18:20:58.071Z,17.48
2022-08-09T18:23:07.609Z,16.95
2022-08-09T18:25:52.798Z,15.45
2022-08-09T18:30:37.959Z,18.65
2022-08-09T18:31:50.999Z,20.90
2022-08-09T18:34:08.964Z,15.10
2022-08-09T18:36:38.291Z,17.92
2022-08-09T18:39:11.184Z,15.63
2022-08-09T18:41:53.197Z,21.33
2022-08-09T18:44:25.721Z,19.63
2022-08-09T18:47:03.489Z,18.67
2022-08-09T18:49:43.678Z,20.67
2022-08-09T18:52:18.576Z,19.45
2022-08-09T18:54:55.120Z,19.52
2022-08-09T18:57:38.455Z,17.88
2022-08-09T19:00:20.291Z,23.38
2022-08-09T19:02:53.906Z,19.77
2022-08-09T19:05:49.013Z,22.00
2022-08-09T19:08:14.162Z,19.13
2022-08-09T19:10:49.312Z,18.98
2022-08-09T19:13:38.439Z,18.58
2022-08-09T19:16:11.221Z,27.75
2022-08-09T19:18:45.426Z,20.30
2022-08-09T19:21:14.992Z,21.45
2022-08-09T19:24:36.557Z,23.10
2022-08-09T19:26:35.165Z,18.08
2022-08-09T19:29:09.685Z,21.50
2022-08-09T19:31:51.304Z,18.95
2022-08-09T19:34:24.843Z,20.60
2022-08-09T19:36:57.665Z,19.90
2022-08-09T19:39:43.865Z,21.00
2022-08-09T19:42:29.329Z,22.70
2022-08-09T19:44:58.698Z,22.33
2022-08-09T19:47:29.298Z,19.00
2022-08-09T19:50:09.844Z,18.40
2022-08-09T19:52:52.130Z,22.45
2022-08-09T19:55:25.668Z,20.73
2022-08-09T19:58:00.165Z,21.30
2022-08-09T20:00:29.529Z,23.48
2022-08-09T20:04:17.307Z,20.17
2022-08-09T20:05:53.043Z,23.08
2022-08-09T20:08:33.248Z,21.50
2022-08-09T20:11:04.983Z,21.67
2022-08-09T20:13:37.244Z,23.13
2022-08-09T20:16:34.501Z,19.73
2022-08-09T20:19:42.114Z,20.38
2022-08-09T20:21:56.894Z,22.55
2022-08-09T20:24:31.731Z,18.42
2022-08-09T20:27:07.947Z,22.40
2022-08-09T20:29:39.248Z,24.05
2022-08-09T20:32:29.333Z,19.63
2022-08-09T20:35:01.796Z,21.98
2022-08-09T20:37:37.941Z,23.77
2022-08-09T20:40:26.263Z,26.02
2022-08-09T20:43:00.384Z,22.95
2022-08-09T20:46:01.452Z,19.58
2022-08-09T20:48:38.060Z,17.92
2022-08-09T20:51:19.472Z,16.55
2022-08-09T20:53:49.121Z,23.55
2022-08-09T20:56:21.847Z,19.20
2022-08-09T20:58:54.568Z,15.95
2022-08-09T21:01:34.953Z,18.98
2022-08-09T21:05:54.030Z,20.67
2022-08-09T21:07:12.984Z,17.25
2022-08-09T21:09:45.768Z,18.27
2022-08-09T21:15:15.379Z,22.40
2022-08-09T21:18:21.965Z,14.35
2022-08-09T21:20:35.822Z,13.73
2022-08-09T21:23:09.296Z,14.70
2022-08-09T21:25:58.843Z,15.75
2022-08-09T21:28:34.635Z,19.23
2022-08-09T21:31:16.563Z,14.05
2022-08-09T21:33:50.812Z,16.00
2022-08-09T21:36:23.309Z,14.82
2022-08-09T21:38:56.792Z,15.20
2022-08-09T21:42:05.155Z,13.68
2022-08-09T21:44:34.309Z,14.75
2022-08-09T21:47:07.729Z,13.02
2022-08-09T21:49:40.586Z,13.63
2022-08-09T21:52:17.515Z,14.52
2022-08-09T21:55:03.207Z,15.50
2022-08-09T21:57:39.616Z,17.17
2022-08-09T22:00:32.643Z,18.92
2022-08-09T22:03:05.790Z,12.90
2022-08-09T22:05:37.499Z,12.85
2022-08-09T22:08:14.605Z,14.52
2022-08-09T22:11:05.040Z,11.90
2022-08-09T22:13:37.188Z,12.70
2022-08-09T22:16:08.305Z,13.00
2022-08-09T22:18:53.198Z,14.63
2022-08-09T22:21:27.354Z,14.15
2022-08-09T22:24:16.614Z,14.65
2022-08-09T22:26:51.819Z,15.70
2022-08-09T22:29:28.994Z,14.75
2022-08-09T22:32:20.001Z,13.68
2022-08-09T22:35:02.180Z,11.85
2022-08-09T22:37:39.945Z,11.43
2022-08-09T22:40:19.886Z,13.07
2022-08-09T22:42:50.880Z,12.75
2022-08-09T22:48:12.787Z,12.35
2022-08-09T22:48:17.655Z,13.93
2022-08-09T22:50:58.495Z,11.40
2022-08-09T22:53:44.154Z,12.10
2022-08-09T22:56:33.319Z,13.95
2022-08-09T22:59:55.796Z,11.27
2022-08-09T23:01:55.023Z,10.40
2022-08-09T23:04:25.565Z,12.43
2022-08-09T23:07:14.208Z,12.05
2022-08-09T23:09:45.431Z,13.38
2022-08-09T23:12:14.416Z,10.63
2022-08-09T23:14:44.825Z,10.10
2022-08-09T23:17:13.729Z,12.82
2022-08-09T23:20:00.680Z,10.63
2022-08-09T23:22:32.756Z,11.02
2022-08-09T23:25:02.325Z,10.13
2022-08-09T23:27:32.646Z,11.30
2022-08-09T23:30:03.255Z,10.43
2022-08-09T23:32:32.982Z,9.20
2022-08-09T23:35:01.984Z,8.30
2022-08-09T23:37:32.141Z,7.82
2022-08-09T23:40:01.317Z,8.65
2022-08-09T23:42:32.474Z,8.02
2022-08-09T23:45:04.125Z,6.93
2022-08-09T23:47:36.277Z,6.95
2022-08-09T23:50:06.195Z,8.48
2022-08-09T23:52:35.246Z,7.90
2022-08-09T23:55:04.864Z,7.32
2022-08-09T23:57:34.254Z,7.68
